Time;durP1;ratioP1;P1;durP2;ratioP2;P2;SDS_P1;SDS_P2;PMS_P1;PMS_P2;Temp;Humidity;BMP_temperature;BMP_pressure;BME280_temperature;BME280_humidity;BME280_pressure;Samples;Min_cycle;Max_cycle;Signal;HPM_P1;HPM_P2
2022/06/10 00:01:24;;;;;;;2.58;1.90;;;13.70;79.10;;;14.14;60.24;98174.91;5043484;28;20046;-47
2022/06/10 00:03:51;;;;;;;3.38;2.03;;;13.70;79.40;;;14.13;60.35;98175.06;5043290;28;20052;-44
2022/06/10 00:06:19;;;;;;;3.45;2.50;;;13.70;79.60;;;14.11;60.55;98177.09;5042994;28;20355;-45
2022/06/10 00:08:48;;;;;;;6.07;2.63;;;13.70;79.60;;;14.07;60.66;98181.13;5043067;28;20053;-45
2022/06/10 00:11:17;;;;;;;7.05;2.20;;;13.60;80.30;;;14.07;60.35;98175.75;5041886;28;20243;-44
2022/06/10 00:13:47;;;;;;;6.22;2.20;;;13.60;80.50;;;14.05;60.61;98181.28;5043188;28;20075;-45
2022/06/10 00:16:18;;;;;;;3.80;1.95;;;13.60;80.30;;;14.05;60.44;98178.59;5042941;28;20260;-46
2022/06/10 00:18:46;;;;;;;3.60;2.00;;;13.60;79.80;;;14.03;60.29;98174.44;5042504;28;20041;-45
2022/06/10 00:21:17;;;;;;;2.40;1.90;;;13.70;79.80;;;14.05;60.44;98177.78;5042727;28;20047;-45
2022/06/10 00:23:45;;;;;;;3.42;2.22;;;13.70;79.10;;;14.06;60.29;98171.44;5042952;28;20045;-46
2022/06/10 00:26:14;;;;;;;5.38;1.95;;;13.70;78.60;;;14.05;60.30;98178.59;5042713;28;20041;-48
2022/06/10 00:28:44;;;;;;;2.67;2.10;;;13.70;78.60;;;13.98;60.42;98174.97;5042621;28;20377;-47
2022/06/10 00:31:13;;;;;;;3.70;2.22;;;13.60;79.20;;;13.91;60.74;98172.09;5042541;28;20056;-45
2022/06/10 00:33:42;;;;;;;5.30;2.35;;;13.50;80.20;;;13.93;60.78;98177.28;5043582;28;20320;-46
2022/06/10 00:36:11;;;;;;;3.90;1.98;;;13.50;80.30;;;13.93;60.83;98180.81;5042493;28;20347;-48
2022/06/10 00:38:38;;;;;;;8.38;2.90;;;13.50;80.20;;;13.93;60.67;98177.28;5042263;28;20045;-48
2022/06/10 00:41:06;;;;;;;4.53;2.58;;;13.50;80.00;;;13.94;60.67;98176.31;5042336;28;20048;-46
2022/06/10 00:43:36;;;;;;;6.18;2.20;;;13.60;79.80;;;13.93;60.72;98175.44;5042788;28;20123;-45
2022/06/10 00:46:23;;;;;;;2.45;1.90;;;13.50;79.80;;;13.92;60.63;98176.47;5042536;28;20201;-46
2022/06/10 00:49:07;;;;;;;3.92;2.63;;;13.60;79.70;;;13.94;60.44;98178.97;5041217;28;20060;-46
2022/06/10 00:51:53;;;;;;;6.18;2.65;;;13.60;79.50;;;13.93;60.48;98170.09;5043101;28;20049;-45
2022/06/10 00:54:47;;;;;;;4.70;2.35;;;13.60;79.10;;;13.92;60.49;98176.47;5041326;28;20057;-45
2022/06/10 00:57:20;;;;;;;5.40;2.22;;;13.60;78.90;;;13.95;60.72;98172.59;5042035;28;20236;-46
2022/06/10 00:59:50;;;;;;;;;;;13.60;78.80;;;13.92;60.51;98172.94;5043166;28;20055;-47
2022/06/10 01:02:24;;;;;;;2.85;1.83;;;13.60;79.20;;;13.98;60.31;98181.13;5041940;28;19939;-45
2022/06/10 01:04:55;;;;;;;2.85;2.08;;;13.60;78.50;;;13.99;60.36;98184.66;5042466;28;20220;-46
2022/06/10 01:07:32;;;;;;;7.10;2.55;;;13.70;78.40;;;14.02;60.17;98183.50;5042208;28;20220;-45
2022/06/10 01:10:04;;;;;;;5.20;2.25;;;13.70;78.20;;;14.03;60.40;98180.63;5040705;28;20045;-47
2022/06/10 01:13:07;;;;;;;3.95;1.80;;;13.70;78.00;;;13.99;60.41;98182.78;5042108;28;20051;-47
2022/06/10 01:16:20;;;;;;;4.53;2.10;;;13.80;77.60;;;14.00;60.15;98186.34;5042590;28;20049;-47
2022/06/10 01:19:24;;;;;;;4.00;2.08;;;13.70;78.10;;;14.01;60.13;98179.94;5040903;28;20052;-47
2022/06/10 01:22:36;;;;;;;5.60;2.15;;;13.70;78.20;;;14.03;60.32;98180.63;5042011;28;20045;-47
2022/06/10 01:25:36;;;;;;;4.03;2.42;;;13.80;78.10;;;14.07;60.20;98181.13;5040858;28;20060;-46
2022/06/10 01:28:43;;;;;;;7.63;2.50;;;13.80;77.80;;;14.07;60.36;98181.13;5041690;28;20049;-49
2022/06/10 01:31:20;;;;;;;4.65;2.20;;;13.80;78.00;;;14.09;60.21;98181.78;5042829;28;20045;-44
2022/06/10 01:34:15;;;;;;;4.07;2.20;;;13.80;77.80;;;14.05;60.21;98183.13;5045069;28;20045;-46
2022/06/10 01:37:11;;;;;;;5.68;2.25;;;13.80;78.20;;;14.05;60.35;98172.41;5046299;28;20057;-44
2022/06/10 01:40:15;;;;;;;5.15;2.40;;;13.80;78.50;;;14.05;60.42;98175.94;5045608;28;20049;-44
2022/06/10 01:43:10;;;;;;;7.47;2.45;;;13.80;78.30;;;13.99;60.72;98180.13;5044719;28;20236;-44
2022/06/10 01:45:55;;;;;;;4.20;2.35;;;13.70;78.70;;;14.01;60.58;98179.13;5044879;28;20370;-48
2022/06/10 01:48:43;;;;;;;5.55;2.33;;;13.70;78.90;;;14.01;60.85;98187.97;5045488;28;20057;-49
2022/06/10 01:51:34;;;;;;;5.88;2.63;;;13.70;78.90;;;14.01;60.71;98192.50;5029809;28;20053;-45
2022/06/10 01:54:14;;;;;;;7.03;3.53;;;13.80;78.80;;;14.02;60.70;98189.66;5044367;28;20045;-47
2022/06/10 01:56:47;;;;;;;5.63;3.13;;;13.80;78.70;;;14.03;60.64;98195.84;5046294;28;20263;-46
2022/06/10 01:59:33;;;;;;;4.60;2.47;;;13.70;78.60;;;14.01;60.93;98192.50;5028436;28;20045;-47
2022/06/10 02:02:10;;;;;;;8.50;2.35;;;13.70;78.90;;;14.00;60.72;98194.38;5044454;28;20049;-46
2022/06/10 02:04:54;;;;;;;5.43;2.85;;;13.70;79.00;;;14.01;61.04;98193.34;5044696;28;20059;-47
2022/06/10 02:07:48;;;;;;;5.22;2.67;;;13.80;79.00;;;14.02;60.89;98188.84;5044339;28;20059;-46
2022/06/10 02:10:36;;;;;;;7.22;2.55;;;13.70;78.80;;;14.01;60.85;98187.16;5044063;28;20049;-46
2022/06/10 02:13:13;;;;;;;4.30;2.88;;;13.70;79.10;;;14.01;60.87;98187.97;5044300;28;20275;-45
2022/06/10 02:15:52;;;;;;;5.32;2.42;;;13.70;79.20;;;14.02;60.80;98191.53;5045329;28;20049;-45
2022/06/10 02:18:59;;;;;;;4.47;2.30;;;13.80;79.10;;;14.03;60.80;98199.34;5043688;28;20045;-48
2022/06/10 02:21:44;;;;;;;4.80;2.65;;;13.80;78.90;;;13.98;60.87;98196.38;5045332;28;20052;-48
2022/06/10 02:24:42;;;;;;;6.57;2.35;;;13.60;79.50;;;13.98;60.83;98197.19;5043989;28;20044;-44
2022/06/10 02:27:18;;;;;;;4.28;3.10;;;13.70;79.60;;;13.92;61.09;98205.06;5045797;28;20056;-47
2022/06/10 02:30:07;;;;;;;4.03;2.30;;;13.60;79.70;;;13.87;61.45;98202.06;5045558;28;20053;-46
2022/06/10 02:32:37;;;;;;;3.63;2.10;;;13.50;80.20;;;13.83;61.47;98208.75;5043925;28;20098;-46
2022/06/10 02:35:08;;;;;;;4.25;2.58;;;13.50;80.40;;;13.78;61.46;98207.44;5043825;28;20340;-45
2022/06/10 02:38:06;;;;;;;6.57;3.38;;;13.50;80.60;;;13.76;61.51;98205.91;5044785;28;20057;-46
2022/06/10 02:40:57;;;;;;;5.45;2.03;;;13.40;80.90;;;13.74;61.69;98219.44;5044039;28;20068;-45
2022/06/10 02:44:17;;;;;;;7.90;2.42;;;13.40;80.90;;;13.73;61.42;98215.13;5044765;28;20051;-48
2022/06/10 02:46:54;;;;;;;4.68;3.78;;;13.50;81.50;;;13.77;61.49;98220.97;5044526;28;20343;-48
2022/06/10 02:49:22;;;;;;;7.03;3.00;;;13.40;81.00;;;13.77;61.78;98223.66;5045092;28;20377;-47
2022/06/10 02:51:50;;;;;;;6.05;3.33;;;13.50;80.90;;;13.75;61.59;98221.13;5043766;28;20056;-46
2022/06/10 02:54:34;;;;;;;8.15;2.22;;;13.50;80.80;;;13.75;61.52;98229.16;5043113;28;20061;-47
2022/06/10 02:57:27;;;;;;;3.70;2.30;;;13.40;80.70;;;13.73;61.58;98227.66;5044441;28;20053;-46
2022/06/10 03:03:00;;;;;;;4.22;2.60;;;13.40;81.00;;;13.70;61.74;98223.47;5045193;28;20064;-44
2022/06/10 03:06:00;;;;;;;8.18;2.75;;;13.40;81.20;;;13.71;61.73;98235.03;5044303;28;20350;-47
2022/06/10 03:08:55;;;;;;;5.28;2.90;;;13.40;81.30;;;13.65;61.54;98231.19;5042994;28;20049;-47
2022/06/10 03:11:39;;;;;;;4.70;2.53;;;13.30;81.40;;;13.61;61.62;98234.31;5042345;28;20356;-49
2022/06/10 03:14:20;;;;;;;9.27;3.83;;;13.30;81.80;;;13.55;62.09;98230.47;5044261;28;20352;-46
2022/06/10 03:17:29;;;;;;;3.33;2.58;;;13.20;82.10;;;13.44;62.30;98237.00;5043247;28;20049;-44
2022/06/10 03:20:38;;;;;;;3.35;2.65;;;13.00;83.60;;;13.38;62.04;98235.00;5043020;28;20425;-44
2022/06/10 03:23:26;;;;;;;7.00;2.70;;;13.00;85.40;;;13.36;62.29;98247.69;5044146;28;20059;-46
2022/06/10 03:26:30;;;;;;;5.15;2.88;;;13.00;84.80;;;13.34;62.26;98244.34;5042911;28;20056;-45
2022/06/10 03:29:41;;;;;;;6.85;2.90;;;12.90;85.70;;;13.34;62.18;98247.03;5042216;28;20057;-48
2022/06/10 03:33:03;;;;;;;3.10;2.42;;;13.00;86.10;;;13.34;62.31;98247.03;5043175;28;20053;-45
2022/06/10 03:35:52;;;;;;;5.22;2.67;;;13.00;86.00;;;13.37;62.20;98255.53;5041891;28;20057;-45
2022/06/10 03:38:20;;;;;;;3.88;2.60;;;13.10;85.60;;;13.38;62.53;98246.50;5042577;28;20059;-45
2022/06/10 03:40:57;;;;;;;4.88;3.75;;;13.10;84.80;;;13.37;62.71;98255.53;5042708;28;20056;-44
2022/06/10 03:43:39;;;;;;;4.70;3.22;;;13.10;85.10;;;13.38;62.54;98267.91;5044127;28;20052;-45
2022/06/10 03:46:12;;;;;;;5.53;2.85;;;13.10;85.10;;;13.37;62.37;98260.03;5042460;28;20049;-46
2022/06/10 03:48:45;;;;;;;6.57;3.30;;;13.10;84.90;;;13.37;62.47;98262.72;5042111;28;20054;-48
2022/06/10 03:51:16;;;;;;;5.93;3.08;;;13.10;84.90;;;13.36;62.47;98264.56;5043640;28;20217;-44
2022/06/10 03:53:45;;;;;;;5.00;3.13;;;13.10;84.70;;;13.36;62.43;98272.59;5041940;28;20229;-45
2022/06/10 03:56:21;;;;;;;4.88;3.28;;;13.00;84.60;;;13.32;62.41;98267.75;5043644;28;20045;-44
2022/06/10 03:58:49;;;;;;;7.80;3.45;;;13.00;84.90;;;13.31;62.88;98274.06;5043191;28;20041;-47
2022/06/10 04:01:17;;;;;;;6.40;3.10;;;13.00;85.20;;;13.33;62.87;98274.75;5044150;28;20045;-47
2022/06/10 04:03:45;;;;;;;5.40;3.00;;;13.00;85.20;;;13.32;62.67;98279.25;5043320;28;20052;-48
2022/06/10 04:06:16;;;;;;;4.85;3.63;;;13.00;85.20;;;13.31;62.74;98279.41;5043089;28;20340;-47
2022/06/10 04:09:04;;;;;;;5.50;3.17;;;13.00;85.50;;;13.32;62.97;98275.75;5042280;28;20056;-46
2022/06/10 04:11:33;;;;;;;9.55;3.92;;;13.00;85.70;;;13.29;62.79;98286.75;5043370;28;20135;-47
2022/06/10 04:14:01;;;;;;;6.35;3.83;;;13.00;86.20;;;13.28;62.88;98279.69;5043528;28;20057;-48
2022/06/10 04:16:29;;;;;;;8.00;3.53;;;12.90;86.60;;;13.28;63.28;98287.72;5042986;28;20060;-46
2022/06/10 04:18:57;;;;;;;4.63;3.45;;;12.90;86.60;;;13.24;63.15;98284.56;5042648;28;20045;-45
2022/06/10 04:21:25;;;;;;;7.97;3.63;;;12.90;87.10;;;13.27;63.26;98291.41;5042977;28;20051;-45
2022/06/10 04:23:53;;;;;;;5.50;3.13;;;13.00;87.30;;;13.29;63.29;98290.25;5042329;28;20055;-45
2022/06/10 04:26:21;;;;;;;4.65;3.25;;;13.00;87.30;;;13.28;63.51;98293.94;5042855;28;20046;-45
2022/06/10 04:28:49;;;;;;;4.35;3.10;;;13.00;87.70;;;13.29;63.48;98289.41;5042417;28;20055;-45
2022/06/10 04:31:16;;;;;;;4.07;3.10;;;13.00;87.90;;;13.31;63.42;98292.78;5041769;28;20045;-45
2022/06/10 04:33:44;;;;;;;7.25;3.35;;;13.00;87.90;;;13.35;63.55;98297.63;5042911;28;20041;-47
2022/06/10 04:36:16;;;;;;;7.85;3.20;;;13.10;87.80;;;13.39;63.60;98300.81;5042887;28;20049;-47
2022/06/10 04:38:45;;;;;;;4.57;3.13;;;13.20;87.80;;;13.41;63.50;98296.16;5042521;28;20052;-44
2022/06/10 04:41:16;;;;;;;6.00;2.72;;;13.20;87.60;;;13.43;63.72;98301.34;5057927;28;20059;-45
2022/06/10 04:43:44;;;;;;;5.18;3.53;;;13.20;87.80;;;13.45;63.57;98302.84;5042585;28;20045;-46
2022/06/10 04:46:43;;;;;;;6.50;3.30;;;13.20;87.80;;;13.46;63.27;98312.56;5041490;28;20051;-47
2022/06/10 04:49:12;;;;;;;3.35;2.80;;;13.20;88.10;;;13.48;63.73;98309.72;5042395;28;20064;-44
2022/06/10 04:51:40;;;;;;;5.72;3.70;;;13.20;88.20;;;13.49;63.77;98306.03;5042250;28;20087;-45
2022/06/10 04:54:08;;;;;;;5.35;2.80;;;13.20;88.20;;;13.45;63.78;98302.84;5042319;28;20063;-45
2022/06/10 04:56:38;;;;;;;5.63;3.45;;;13.20;88.30;;;13.42;63.98;98307.72;5041829;28;20053;-48
2022/06/10 04:59:06;;;;;;;6.57;3.05;;;13.20;88.70;;;13.43;64.12;98312.88;5041788;28;20045;-47
2022/06/10 05:01:34;;;;;;;4.80;3.17;;;13.20;89.20;;;13.49;64.15;98311.38;5042306;28;20045;-46
2022/06/10 05:04:02;;;;;;;4.68;2.75;;;13.30;89.40;;;13.56;64.01;98317.75;5042696;28;20225;-47
2022/06/10 05:06:30;;;;;;;7.22;3.78;;;13.40;88.70;;;13.63;63.70;98321.47;5041499;28;20045;-45
2022/06/10 05:08:58;;;;;;;4.07;3.08;;;13.50;87.90;;;13.66;63.78;98326.47;5040971;28;20046;-45
2022/06/10 05:11:26;;;;;;;6.00;3.00;;;13.50;87.60;;;13.70;63.83;98327.81;5042139;28;20041;-45
2022/06/10 05:13:54;;;;;;;5.88;3.45;;;13.50;87.50;;;13.75;63.91;98330.03;5042200;28;20045;-46
2022/06/10 05:16:25;;;;;;;8.23;3.40;;;13.60;87.20;;;13.79;63.81;98326.84;5042038;28;20041;-44
2022/06/10 05:18:54;;;;;;;5.50;3.13;;;13.70;87.00;;;13.83;63.78;98326.53;5041951;28;20042;-47
2022/06/10 05:21:22;;;;;;;6.00;3.58;;;13.70;87.10;;;13.88;64.20;98324.16;5042073;28;20044;-47
2022/06/10 05:23:50;;;;;;;4.50;3.40;;;13.70;88.40;;;13.93;64.23;98330.69;5042315;28;20046;-46
2022/06/10 05:26:17;;;;;;;6.28;3.38;;;13.80;88.80;;;13.95;64.18;98326.00;5041989;28;20045;-46
2022/06/10 05:28:49;;;;;;;4.80;3.35;;;13.80;88.00;;;14.00;64.24;98330.88;5041863;28;20336;-46
2022/06/10 05:31:17;;;;;;;4.88;3.25;;;13.90;87.90;;;14.05;64.08;98333.88;5041905;28;20053;-47
2022/06/10 05:36:31;;;;;;;6.55;3.60;;;14.00;88.50;;;14.18;64.57;98333.41;5041756;28;20045;-47
2022/06/10 05:39:00;;;;;;;4.00;2.97;;;14.20;89.60;;;14.24;64.58;98340.75;5042194;28;20057;-49
2022/06/10 05:44:14;;;;;;;5.03;3.30;;;14.20;90.30;;;14.32;64.68;98354.13;5041736;28;20063;-48
2022/06/10 05:46:43;;;;;;;8.05;3.35;;;14.30;90.40;;;14.37;64.77;98346.44;5041560;28;20248;-46
2022/06/10 05:49:12;;;;;;;5.18;3.58;;;14.30;90.30;;;14.41;64.56;98354.16;5041739;28;20056;-47
2022/06/10 05:51:40;;;;;;;5.57;3.03;;;14.30;90.20;;;14.38;64.51;98352.63;5040893;28;20059;-47
2022/06/10 05:54:08;;;;;;;5.28;4.28;;;14.30;90.20;;;14.41;64.60;98357.66;5041705;28;20075;-46
2022/06/10 05:56:35;;;;;;;7.10;3.88;;;14.30;89.90;;;14.45;64.55;98355.50;5041595;28;20052;-45
2022/06/10 05:59:03;;;;;;;6.65;3.72;;;14.40;89.30;;;14.51;64.59;98363.69;5041917;28;20053;-48
2022/06/10 06:01:31;;;;;;;6.20;3.75;;;14.40;89.10;;;14.59;64.63;98359.34;5042197;28;20045;-47
2022/06/10 06:03:59;;;;;;;9.15;4.00;;;14.50;89.00;;;14.65;64.70;98364.84;5041577;28;20315;-46
2022/06/10 06:06:27;;;;;;;5.65;3.38;;;14.60;90.00;;;14.70;64.67;98359.84;5041644;28;20112;-46
2022/06/10 06:08:55;;;;;;;5.15;3.35;;;14.70;89.10;;;14.76;64.59;98361.00;5041118;28;20055;-47
2022/06/10 06:11:23;;;;;;;6.40;3.13;;;14.80;88.80;;;14.83;64.74;98359.31;5040517;28;20049;-46
2022/06/10 06:13:50;;;;;;;5.38;3.65;;;14.90;88.90;;;14.87;64.49;98363.34;5042389;28;20512;-48
2022/06/10 06:16:19;;;;;;;6.63;3.28;;;14.90;88.50;;;14.91;64.54;98370.03;5041554;28;20054;-49
2022/06/10 06:18:48;;;;;;;7.65;3.97;;;14.90;88.10;;;14.96;64.33;98369.50;5044274;28;20255;-48
2022/06/10 06:21:16;;;;;;;9.02;3.80;;;15.00;88.00;;;14.98;64.30;98367.47;5045669;28;20060;-50
2022/06/10 06:23:49;;;;;;;4.57;3.35;;;15.00;87.70;;;15.02;64.13;98373.34;5045708;28;20054;-48
2022/06/10 06:26:18;;;;;;;6.05;3.13;;;15.00;87.10;;;15.07;63.74;98376.34;5045679;28;20057;-46
2022/06/10 06:28:46;;;;;;;5.38;3.55;;;15.10;86.10;;;15.09;63.79;98374.34;5044750;28;20048;-47
2022/06/10 06:31:15;;;;;;;4.30;2.72;;;15.10;85.50;;;15.06;63.35;98366.63;5045187;28;20056;-48
2022/06/10 06:33:43;;;;;;;4.38;2.80;;;15.10;84.40;;;15.08;63.29;98373.50;5045486;28;20053;-49
2022/06/10 06:36:21;;;;;;;6.30;2.85;;;15.10;83.90;;;15.12;63.65;98369.47;5043814;28;20045;-46
2022/06/10 06:38:50;;;;;;;4.38;2.80;;;15.10;83.80;;;15.20;63.46;98375.78;5043600;28;20053;-48
2022/06/10 06:41:19;;;;;;;5.38;2.95;;;15.20;83.90;;;15.26;63.50;98377.81;5060201;28;20049;-49
2022/06/10 06:43:47;;;;;;;5.47;3.35;;;15.30;83.70;;;15.33;63.49;98374.25;5044761;28;20361;-50
2022/06/10 06:46:17;;;;;;;5.25;3.08;;;15.40;83.40;;;15.40;63.37;98382.44;5044869;28;20041;-45
2022/06/10 06:48:45;;;;;;;7.93;3.88;;;15.50;83.30;;;15.46;63.36;98375.53;5044359;28;20052;-45
2022/06/10 06:51:15;;;;;;;7.43;3.70;;;15.60;83.20;;;15.50;63.40;98380.38;5044778;28;20057;-47
2022/06/10 06:53:42;;;;;;;7.75;2.83;;;15.60;82.90;;;15.54;63.04;98376.31;5043434;28;20053;-46
2022/06/10 06:56:10;;;;;;;5.32;2.92;;;15.70;82.10;;;15.61;62.99;98381.84;5045764;28;20054;-50
2022/06/10 06:58:38;;;;;;;10.68;3.50;;;15.70;81.90;;;15.67;63.08;98383.81;5044249;28;20064;-47
2022/06/10 07:01:06;;;;;;;4.60;3.05;;;15.80;82.00;;;15.72;62.90;98383.28;5044337;28;20055;-46
2022/06/10 07:03:34;;;;;;;4.00;2.90;;;15.80;81.40;;;15.75;62.45;98380.28;5044456;28;20045;-48
2022/06/10 07:06:02;;;;;;;4.90;2.70;;;15.80;80.40;;;15.76;62.09;98384.66;5044322;28;20352;-46
2022/06/10 07:08:33;;;;;;;5.70;2.50;;;15.90;79.10;;;15.73;60.81;98374.25;5044624;28;20060;-46
2022/06/10 07:11:03;;;;;;;3.67;2.33;;;15.80;74.30;;;15.73;60.80;98376.94;5043352;28;20053;-48
2022/06/10 07:13:31;;;;;;;6.35;3.08;;;15.80;76.10;;;15.75;60.55;98378.44;5044231;28;20046;-51
2022/06/10 07:16:01;;;;;;;4.78;2.47;;;15.80;75.60;;;15.74;60.51;98378.59;5044247;28;20049;-51
2022/06/10 07:18:30;;;;;;;3.17;2.15;;;15.80;75.60;;;15.79;60.38;98380.78;5043660;28;20061;-46
2022/06/10 07:20:58;;;;;;;4.13;2.38;;;15.80;75.30;;;15.84;59.98;98389.13;5044100;28;20038;-48
2022/06/10 07:23:27;;;;;;;4.85;2.47;;;15.90;74.50;;;15.87;59.83;98389.59;5044400;28;20049;-48
2022/06/10 07:25:55;;;;;;;5.13;2.63;;;16.00;73.70;;;15.91;59.82;98385.53;5044161;28;20050;-47
2022/06/10 07:28:23;;;;;;;5.85;2.50;;;16.10;74.10;;;15.94;59.42;98395.13;5043727;28;20065;-46
2022/06/10 07:30:51;;;;;;;5.47;2.70;;;16.10;73.40;;;15.98;59.72;98388.38;5043569;28;20056;-51
2022/06/10 07:33:19;;;;;;;6.30;2.85;;;16.10;74.00;;;16.02;59.76;98378.94;5044235;28;20049;-48
2022/06/10 07:35:47;;;;;;;5.60;2.75;;;16.10;73.60;;;16.06;59.71;98374.06;5043723;28;20053;-45
2022/06/10 07:38:15;;;;;;;3.67;2.42;;;16.20;73.70;;;16.16;60.12;98380.03;5043411;28;20055;-46
2022/06/10 07:43:41;;;;;;;4.13;2.50;;;16.40;75.10;;;16.33;60.29;98380.75;5043702;28;20050;-48
2022/06/10 07:46:15;;;;;;;3.90;2.50;;;16.50;75.00;;;16.39;60.38;98377.34;5043634;28;20049;-45
2022/06/10 07:48:44;;;;;;;5.40;3.00;;;16.50;74.80;;;16.41;60.43;98383.34;5043459;28;20045;-50
2022/06/10 07:51:12;;;;;;;6.88;3.10;;;16.60;74.80;;;16.42;60.05;98373.44;5043631;28;20056;-48
2022/06/10 07:53:41;;;;;;;8.93;3.00;;;16.60;74.50;;;16.47;59.83;98377.25;5044235;28;20329;-46
2022/06/10 07:56:13;;;;;;;5.15;2.45;;;16.60;74.30;;;16.51;59.79;98377.72;5042417;28;20054;-50
2022/06/10 07:58:42;;;;;;;5.35;2.67;;;16.70;73.60;;;16.54;59.78;98382.75;5042933;28;20059;-48
2022/06/10 08:01:11;;;;;;;3.85;2.67;;;16.70;73.60;;;16.59;59.64;98377.66;5043393;28;20045;-46
2022/06/10 08:03:45;;;;;;;7.13;3.35;;;16.70;73.60;;;16.63;59.37;98372.75;5043344;28;20049;-46
2022/06/10 08:06:14;;;;;;;9.13;3.47;;;16.80;71.80;;;16.64;58.41;98374.44;5043339;28;20053;-46
2022/06/10 08:08:41;;;;;;;3.88;2.25;;;16.80;71.00;;;16.68;58.81;98371.19;5042930;28;20071;-47
2022/06/10 08:11:09;;;;;;;6.68;2.47;;;16.90;71.60;;;16.72;58.58;98372.50;5042242;28;20250;-50
2022/06/10 08:13:37;;;;;;;3.28;2.50;;;16.90;71.20;;;16.74;58.01;98370.47;5043050;28;20053;-47
2022/06/10 08:16:05;;;;;;;5.93;3.45;;;16.90;68.90;;;16.73;57.74;98376.88;5042874;28;20213;-47
2022/06/10 08:18:34;;;;;;;3.55;1.95;;;17.00;69.60;;;16.82;57.66;98377.63;5043018;28;20049;-47
2022/06/10 08:23:51;;;;;;;3.97;2.83;;;17.10;70.10;;;16.95;57.96;98379.72;5042948;28;20296;-48
2022/06/10 08:26:20;;;;;;;4.05;2.83;;;17.10;70.30;;;17.00;57.80;98373.75;5043563;28;20342;-50
2022/06/10 08:28:48;;;;;;;7.88;2.67;;;17.20;70.00;;;17.01;58.00;98373.59;5042622;28;20048;-46
2022/06/10 08:31:16;;;;;;;4.45;3.50;;;17.20;70.20;;;17.08;57.80;98374.53;5042768;28;20053;-49
2022/06/10 08:33:44;;;;;;;6.47;2.80;;;17.30;69.50;;;17.13;57.27;98376.66;5042987;28;20053;-48
2022/06/10 08:36:13;;;;;;;2.72;2.17;;;17.30;68.50;;;17.13;57.31;98373.97;5042763;28;20049;-48
2022/06/10 08:38:44;;;;;;;4.45;2.55;;;17.30;69.00;;;17.18;57.36;98373.41;5042880;28;20055;-50
2022/06/10 08:42:08;;;;;;;6.38;4.03;;;17.40;69.20;;;17.22;57.39;98377.41;5042573;28;20041;-49
2022/06/10 08:44:54;;;;;;;6.18;2.40;;;17.50;68.70;;;17.30;57.21;98374.63;5042329;28;20049;-46
2022/06/10 08:47:22;;;;;;;3.85;2.50;;;17.50;68.70;;;17.36;57.94;98381.94;5042399;28;20049;-47
2022/06/10 08:50:22;;;;;;;5.45;2.42;;;17.50;70.10;;;17.45;57.85;98380.81;5042469;28;20051;-46
2022/06/10 08:52:56;;;;;;;7.60;3.33;;;17.70;69.30;;;17.52;57.17;98384.44;5042557;28;20053;-47
2022/06/10 08:55:41;;;;;;;6.63;3.25;;;17.80;69.20;;;17.61;57.38;98379.78;5042836;28;20236;-49
2022/06/10 08:58:32;;;;;;;4.80;2.70;;;17.90;68.30;;;17.66;56.27;98376.50;5042237;28;20050;-47
2022/06/10 09:01:06;;;;;;;3.83;2.90;;;17.90;67.50;;;17.71;56.83;98376.78;5041536;28;20057;-50
2022/06/10 09:03:52;;;;;;;9.48;3.00;;;17.90;68.40;;;17.75;56.84;98379.94;5041363;28;20042;-50
2022/06/10 09:06:56;;;;;;;5.47;2.83;;;18.00;68.30;;;17.76;56.81;98373.50;5042319;28;20063;-48
2022/06/10 09:09:27;;;;;;;3.78;3.00;;;18.00;66.80;;;17.75;56.33;98383.47;5039576;28;20054;-47
2022/06/10 09:12:17;;;;;;;4.68;2.78;;;17.90;67.60;;;17.71;56.21;98377.59;5040849;28;20132;-51
2022/06/10 09:14:45;;;;;;;3.63;2.47;;;18.00;67.40;;;17.81;56.46;98379.19;5042078;28;20049;-49
2022/06/10 09:17:36;;;;;;;4.75;2.88;;;18.00;67.60;;;17.86;55.99;98372.22;5042003;28;20053;-51
2022/06/10 09:20:19;;;;;;;5.90;2.88;;;18.10;67.50;;;17.98;56.53;98374.44;5041150;28;20254;-47
2022/06/10 09:23:02;;;;;;;6.85;3.13;;;18.20;67.60;;;18.04;56.16;98379.03;5042114;28;20047;-47
2022/06/10 09:25:38;;;;;;;9.50;3.03;;;18.20;67.00;;;18.07;56.28;98376.81;5042265;28;20049;-49
2022/06/10 09:28:06;;;;;;;6.75;2.53;;;18.30;67.60;;;18.17;56.19;98378.38;5041902;28;20049;-51
2022/06/10 09:31:28;;;;;;;6.15;2.47;;;18.40;67.50;;;18.24;55.85;98377.41;5042205;28;20239;-48
2022/06/10 09:34:26;;;;;;;6.85;3.00;;;18.50;65.80;;;18.36;56.09;98382.25;5040510;28;20064;-49
2022/06/10 09:37:01;;;;;;;4.25;3.25;;;18.60;66.80;;;18.44;55.44;98374.88;5042020;28;20052;-47
2022/06/10 09:43:38;;;;;;;7.70;2.65;;;18.70;63.00;;;18.52;54.21;98370.38;5041505;28;20254;-48
2022/06/10 09:46:40;;;;;;;3.95;2.60;;;18.80;61.70;;;18.49;50.37;98371.59;5042231;28;20340;-47
2022/06/10 09:49:35;;;;;;;3.30;2.25;;;18.70;60.00;;;18.56;53.01;98374.38;5040336;28;20063;-48
2022/06/10 09:52:15;;;;;;;6.68;2.67;;;18.80;61.10;;;18.61;52.83;98369.19;5042480;28;20060;-50
2022/06/10 09:55:18;;;;;;;5.28;2.28;;;18.80;60.70;;;18.67;52.55;98361.19;5045531;28;20052;-47
2022/06/10 09:58:22;;;;;;;7.00;2.40;;;18.90;60.40;;;18.69;52.70;98359.13;5045740;28;20060;-46
2022/06/10 10:01:29;;;;;;;5.85;2.50;;;18.90;62.30;;;18.81;52.84;98362.13;5045745;28;20045;-51
2022/06/10 10:04:22;;;;;;;5.13;2.67;;;19.00;60.20;;;18.91;52.43;98356.41;5044731;28;20071;-50
2022/06/10 10:07:47;;;;;;;4.32;2.20;;;19.20;59.70;;;18.94;50.37;98356.00;5045548;28;20049;-51
2022/06/10 10:10:29;;;;;;;5.97;2.03;;;19.30;57.80;;;19.03;49.99;98351.28;5044667;28;20049;-48
2022/06/10 10:13:29;;;;;;;7.32;3.15;;;19.30;58.50;;;19.06;50.97;98354.41;5045628;28;20112;-47
2022/06/10 10:16:17;;;;;;;3.65;2.30;;;19.40;56.80;;;19.15;50.95;98351.56;5045153;28;20082;-49
2022/06/10 10:19:15;;;;;;;4.75;1.92;;;19.40;58.50;;;19.21;48.84;98345.34;5045924;28;20053;-49
2022/06/10 10:22:10;;;;;;;3.95;2.10;;;19.60;56.70;;;19.33;49.33;98343.78;5045500;28;20076;-47
2022/06/10 10:24:42;;;;;;;4.05;2.17;;;19.70;56.30;;;19.43;49.01;98348.81;5045082;28;20209;-49
2022/06/10 10:27:32;;;;;;;6.03;2.90;;;19.70;56.20;;;19.50;47.59;98344.25;5044215;28;20209;-53
2022/06/10 10:30:17;;;;;;;5.35;2.53;;;19.80;53.80;;;19.56;47.12;98342.59;5044010;28;20336;-48
2022/06/10 10:33:01;;;;;;;4.68;2.20;;;19.90;54.70;;;19.66;48.56;98343.91;5045196;28;20049;-50
2022/06/10 10:35:37;;;;;;;5.85;2.22;;;20.00;55.30;;;19.73;47.94;98337.72;5045019;28;20056;-49
2022/06/10 10:38:13;;;;;;;4.43;2.03;;;20.00;54.60;;;19.78;48.05;98346.06;5045514;28;20049;-48
2022/06/10 10:40:47;;;;;;;6.20;2.95;;;20.10;55.00;;;19.83;48.29;98336.31;5043752;28;20050;-50
2022/06/10 10:43:22;;;;;;;2.42;2.00;;;20.10;54.70;;;19.90;47.49;98346.28;5044931;28;20220;-47
2022/06/10 10:46:23;;;;;;;5.72;2.20;;;20.20;54.40;;;19.97;45.48;98347.16;5043222;28;20044;-48
2022/06/10 10:48:51;;;;;;;3.65;1.98;;;20.30;52.10;;;20.00;47.30;98344.03;5043574;28;20041;-47
2022/06/10 10:51:24;;;;;;;4.38;1.80;;;20.30;54.10;;;20.01;46.72;98343.00;5043653;28;20053;-47
2022/06/10 10:54:22;;;;;;;5.45;2.28;;;20.30;53.20;;;20.02;46.88;98337.38;5043026;28;20058;-49
2022/06/10 10:56:52;;;;;;;6.30;2.28;;;20.30;52.80;;;20.01;46.90;98330.31;5043385;28;20057;-47
2022/06/10 10:59:35;;;;;;;3.53;2.13;;;20.30;53.40;;;20.01;46.42;98341.13;5044270;28;20057;-50
2022/06/10 11:02:30;;;;;;;4.93;2.30;;;20.30;52.10;;;20.09;45.29;98340.09;5044533;28;20056;-46
2022/06/10 11:05:34;;;;;;;4.35;2.10;;;20.60;50.20;;;20.16;45.06;98334.69;5044278;28;20051;-50
2022/06/10 11:08:14;;;;;;;;;;;20.70;50.20;;;20.26;45.64;98330.56;5044714;28;20332;-46
2022/06/10 11:11:07;;;;;;;4.75;2.40;;;20.80;49.10;;;20.41;44.63;98334.91;5043343;28;19917;-47
2022/06/10 11:13:56;;;;;;;7.18;2.97;;;21.00;47.70;;;20.36;43.37;98330.16;5044405;28;20045;-50
2022/06/10 11:16:23;;;;;;;4.07;2.40;;;21.00;50.20;;;20.33;44.11;98333.25;5044280;28;20060;-49
2022/06/10 11:19:20;;;;;;;5.22;2.92;;;21.00;48.50;;;20.44;42.76;98332.63;5043895;28;20041;-53
2022/06/10 11:21:51;;;;;;;4.78;2.30;;;21.00;48.60;;;20.46;44.19;98330.56;5043019;28;20056;-49
2022/06/10 11:24:28;;;;;;;4.32;2.92;;;21.00;49.10;;;20.54;43.75;98332.22;5043975;28;20056;-49